»·PEaware :: N153CD KBFL-KMHV

N153CD :: KBFL-KMHV

FLIGHT INFORMATION

Flight Status: Arrived
Operator: Privately registered:
United States
More flights under this callsign
Pilot: Jone M. (10385)
Aircraft: CIRRUS SR-20
(SR20)
More flights by this aircraft type
Origin: KBFL Meadows
United States
Destination: KMHV Mojave
United States
More flights between these airports :: More routes between these airports
Route: +
File this flight plan on PilotEdge
Remarks:
Altitude:
(Current/Filed)
0ft
Speed:
(Current/Filed)
0kts
Departed: 12-Jan-19 09:27 AM
Arrived: 12-Jan-19 09:55 AM
Distance/Time
Traveled:
49nm/0:28
Distance/Time
To Go:
Arrived

Flight Plot

Page will automatically refresh every two minutes.


Map Options




Map Legend


Flown Route
Filed Route
Departure Airport
Arrival Airport
Navaid (VOR, NDB)
Fix

Horizontal Profiles

Position Reports

Time Latitude Longitude Heading Altitude Ground
Speed
12-Jan-19 09:16 35.426181 -119.040888 180 506ft 0kts
12-Jan-19 09:17 35.425910 -119.041167 235 506ft 9kts
12-Jan-19 09:18 35.425653 -119.043365 266 506ft 4kts
12-Jan-19 09:19 35.427026 -119.045725 313 506ft 11kts
12-Jan-19 09:20 35.430489 -119.049867 314 506ft 21kts
12-Jan-19 09:21 35.434125 -119.054277 316 506ft 26kts
12-Jan-19 09:22 35.438673 -119.059766 314 506ft 23kts
12-Jan-19 09:23 35.440650 -119.062996 225 506ft 0kts
12-Jan-19 09:24 35.440641 -119.063008 226 506ft 0kts
12-Jan-19 09:25 35.440329 -119.063366 220 506ft 12kts
12-Jan-19 09:26 35.430866 -119.052757 136 878ft 85kts
12-Jan-19 09:27 35.417781 -119.027245 116 1956ft 93kts
12-Jan-19 09:28 35.407018 -118.997409 114 2900ft 103kts
12-Jan-19 09:29 35.394681 -118.965144 118 3842ft 98kts
12-Jan-19 09:30 35.381307 -118.936516 124 4715ft 96kts
12-Jan-19 09:31 35.367362 -118.908311 117 5458ft 102kts
12-Jan-19 09:32 35.352419 -118.870331 117 5473ft 135kts
12-Jan-19 09:33 35.335864 -118.828951 117 5472ft 141kts
12-Jan-19 09:34 35.318452 -118.785763 117 5473ft 141kts
12-Jan-19 09:35 35.300948 -118.742509 116 5479ft 140kts
12-Jan-19 09:36 35.283442 -118.699347 115 5485ft 140kts
12-Jan-19 09:37 35.266059 -118.656503 114 5492ft 140kts
12-Jan-19 09:38 35.248625 -118.613587 114 5498ft 140kts
12-Jan-19 09:39 35.231101 -118.570500 113 5505ft 141kts
12-Jan-19 09:40 35.213483 -118.527198 113 5507ft 141kts
12-Jan-19 09:41 35.197095 -118.487092 112 6030ft 116kts
12-Jan-19 09:42 35.182637 -118.451542 113 6515ft 116kts
12-Jan-19 09:43 35.168156 -118.416035 113 6956ft 116kts
12-Jan-19 09:44 35.153619 -118.380469 113 7365ft 116kts
12-Jan-19 09:45 35.138415 -118.343299 114 7511ft 129kts
12-Jan-19 09:46 35.121815 -118.302861 114 7510ft 135kts
12-Jan-19 09:47 35.097435 -118.268676 144 7290ft 153kts
12-Jan-19 09:48 35.065179 -118.246705 144 6369ft 127kts
12-Jan-19 09:49 35.035311 -118.228684 147 5456ft 114kts
12-Jan-19 09:50 35.009146 -118.208144 84 5159ft 100kts
12-Jan-19 09:51 35.029461 -118.196389 32 4457ft 79kts
12-Jan-19 09:52 35.045775 -118.182921 42 3563ft 70kts
12-Jan-19 09:53 35.058302 -118.166496 49 2830ft 64kts
12-Jan-19 09:54 35.064123 -118.157513 48 2793ft 11kts
12-Jan-19 09:55 35.063701 -118.156313 181 2793ft 0kts
12-Jan-19 09:56 35.063454 -118.156368 194 2793ft 6kts
12-Jan-19 09:57 35.059036 -118.157745 189 2793ft 15kts
12-Jan-19 09:58 35.057007 -118.158727 25 2793ft 2kts
12-Jan-19 09:59 35.057030 -118.158719 5 2793ft 0kts
12-Jan-19 10:00 35.057030 -118.158719 5 2793ft 0kts
12-Jan-19 10:01 35.057030 -118.158719 5 2793ft 0kts
12-Jan-19 10:02 35.057030 -118.158719 5 2793ft 0kts
12-Jan-19 10:03 35.057030 -118.158719 5 2793ft 0kts
12-Jan-19 10:04 35.057030 -118.158719 5 2793ft 0kts
12-Jan-19 10:05 35.057030 -118.158719 5 2793ft 0kts
12-Jan-19 10:06 35.057030 -118.158719 5 2793ft 0kts
12-Jan-19 10:07 35.057030 -118.158719 5 2793ft 0kts

Navigation Log

Ident Type
Flight plan parsing failed, navigation log unavailable